createdAt,value
2023-01-13T00:02:28.537Z,79.02
2023-01-13T00:05:29.901Z,77.65
2023-01-13T00:08:33.911Z,78.62
2023-01-13T00:11:35.276Z,79.35
2023-01-13T00:14:37.867Z,80.19
2023-01-13T00:17:40.519Z,80.09
2023-01-13T00:20:41.826Z,79.34
2023-01-13T00:23:45.888Z,79.53
2023-01-13T00:26:47.424Z,78.69
2023-01-13T00:29:50.353Z,77.61
2023-01-13T00:32:52.391Z,79.09
2023-01-13T00:35:58.393Z,78.62
2023-01-13T00:39:01.795Z,79.49
2023-01-13T00:42:21.330Z,78.58
2023-01-13T00:45:23.945Z,79.44
2023-01-13T00:48:27.022Z,79.98
2023-01-13T00:51:29.636Z,79.37
2023-01-13T00:54:32.928Z,78.54
2023-01-13T00:57:35.648Z,79.45
2023-01-13T01:00:37.032Z,78.40
2023-01-13T01:03:39.731Z,77.52
2023-01-13T01:06:42.332Z,78.83
2023-01-13T01:09:44.385Z,78.97
2023-01-13T01:12:46.969Z,79.13
2023-01-13T01:15:50.156Z,77.69
2023-01-13T01:18:54.445Z,78.98
2023-01-13T01:21:55.850Z,77.82
2023-01-13T01:24:59.411Z,78.33
2023-01-13T01:28:00.788Z,77.96
2023-01-13T01:31:07.338Z,77.70
2023-01-13T01:34:08.753Z,77.17
2023-01-13T01:37:11.349Z,76.63
2023-01-13T01:44:03.061Z,77.24
2023-01-13T01:47:05.882Z,75.28
2023-01-13T01:50:10.702Z,76.53
2023-01-13T01:53:18.264Z,77.14
2023-01-13T01:56:22.118Z,74.97
2023-01-13T01:59:25.854Z,75.78
2023-01-13T02:02:29.199Z,75.84
2023-01-13T02:05:30.572Z,76.43
2023-01-13T02:08:33.989Z,76.15
2023-01-13T02:11:56.115Z,76.59
2023-01-13T02:15:00.662Z,75.07
2023-01-13T02:18:41.645Z,75.80
2023-01-13T02:22:18.828Z,75.93
2023-01-13T02:25:50.294Z,75.87
2023-01-13T02:29:32.629Z,75.07
2023-01-13T02:32:48.130Z,76.37
2023-01-13T02:35:56.779Z,74.79
2023-01-13T02:39:14.992Z,74.80
2023-01-13T02:42:46.226Z,76.36
2023-01-13T02:45:52.346Z,74.66
2023-01-13T02:48:57.947Z,74.32
2023-01-13T02:52:07.560Z,75.39
2023-01-13T02:55:13.479Z,75.09
2023-01-13T02:58:19.017Z,74.83
2023-01-13T03:01:22.358Z,76.08
2023-01-13T03:08:23.101Z,75.01
2023-01-13T03:11:31.907Z,74.94
2023-01-13T03:14:40.064Z,74.91
2023-01-13T03:17:50.689Z,75.15
2023-01-13T03:21:02.744Z,73.96
2023-01-13T03:24:10.251Z,75.28
2023-01-13T03:27:20.479Z,74.66
2023-01-13T03:30:27.034Z,74.28
2023-01-13T03:33:36.572Z,74.87
2023-01-13T03:40:08.886Z,74.32
2023-01-13T03:43:35.141Z,73.04
2023-01-13T03:46:45.270Z,73.29
2023-01-13T03:49:55.311Z,73.40
2023-01-13T03:53:03.770Z,73.59
2023-01-13T03:56:09.599Z,73.56
2023-01-13T04:02:47.468Z,73.15
2023-01-13T04:05:54.023Z,72.82
2023-01-13T04:09:07.428Z,73.08
2023-01-13T04:12:13.955Z,74.11
2023-01-13T04:15:17.495Z,73.37
2023-01-13T04:18:21.750Z,73.31
2023-01-13T04:21:24.315Z,73.31
2023-01-13T04:24:26.587Z,72.05
2023-01-13T04:27:29.107Z,73.53
2023-01-13T04:30:32.278Z,73.92
2023-01-13T04:36:54.466Z,73.98
2023-01-13T04:39:57.594Z,73.75
2023-01-13T04:42:58.943Z,73.51
2023-01-13T04:46:00.720Z,74.08
2023-01-13T04:49:02.077Z,74.20
2023-01-13T04:52:06.239Z,74.34
2023-01-13T04:55:10.347Z,74.98
2023-01-13T04:58:11.906Z,73.95
2023-01-13T05:01:14.646Z,74.50
2023-01-13T05:04:16.363Z,74.76
2023-01-13T05:07:24.774Z,74.01
2023-01-13T05:10:27.775Z,74.13
2023-01-13T05:13:58.888Z,74.06
2023-01-13T05:17:01.585Z,74.32
2023-01-13T05:20:03.294Z,74.89
2023-01-13T05:23:23.644Z,75.94
2023-01-13T05:26:26.244Z,77.36
2023-01-13T05:29:27.532Z,77.51
2023-01-13T05:32:30.077Z,77.56
2023-01-13T05:35:31.425Z,76.67
2023-01-13T05:38:33.028Z,77.02
2023-01-13T05:41:54.015Z,77.48
2023-01-13T05:44:55.663Z,79.07
2023-01-13T05:47:57.321Z,79.47
2023-01-13T05:50:59.255Z,79.78
2023-01-13T05:54:01.886Z,81.68
2023-01-13T05:57:05.485Z,80.86
2023-01-13T06:00:08.072Z,82.13
2023-01-13T06:03:11.344Z,82.07
2023-01-13T06:06:12.870Z,82.47
2023-01-13T06:09:16.520Z,82.49
2023-01-13T06:12:18.943Z,81.99
2023-01-13T06:15:20.922Z,81.84
2023-01-13T06:18:22.538Z,82.29
2023-01-13T06:21:23.897Z,81.78
2023-01-13T06:24:26.487Z,81.30
2023-01-13T06:27:29.294Z,82.29
2023-01-13T06:30:37.726Z,83.79
2023-01-13T06:33:46.212Z,83.44
2023-01-13T06:36:54.971Z,84.40
2023-01-13T06:40:00.977Z,84.05
2023-01-13T06:43:16.924Z,84.08
2023-01-13T06:46:20.157Z,84.35
2023-01-13T06:49:21.810Z,84.24
2023-01-13T06:52:24.940Z,83.99
2023-01-13T06:55:26.274Z,84.43
2023-01-13T06:58:28.258Z,84.42
2023-01-13T07:01:30.050Z,84.55
2023-01-13T07:04:31.477Z,84.12
2023-01-13T07:07:33.187Z,84.36
2023-01-13T07:10:35.790Z,84.03
2023-01-13T07:17:28.968Z,83.87
2023-01-13T07:20:31.974Z,83.74
2023-01-13T07:23:35.955Z,83.83
2023-01-13T07:26:38.643Z,84.09
2023-01-13T07:29:40.825Z,83.42
2023-01-13T07:32:42.492Z,83.46
2023-01-13T07:35:45.223Z,83.22
2023-01-13T07:38:46.626Z,82.49
2023-01-13T07:42:07.599Z,82.45
2023-01-13T07:45:12.391Z,82.46
2023-01-13T07:48:15.111Z,83.20
2023-01-13T07:51:16.625Z,82.82
2023-01-13T07:54:25.545Z,82.05
2023-01-13T07:57:34.546Z,81.01
2023-01-13T08:00:38.980Z,80.32
2023-01-13T08:03:41.922Z,79.99
2023-01-13T08:06:45.151Z,77.68
2023-01-13T08:09:47.012Z,77.22
2023-01-13T08:13:18.392Z,77.51
2023-01-13T08:16:22.196Z,75.47
2023-01-13T08:19:25.563Z,76.42
2023-01-13T08:22:30.441Z,76.07
2023-01-13T08:25:36.800Z,74.83
2023-01-13T08:28:49.199Z,73.95
2023-01-13T08:31:52.363Z,75.19
2023-01-13T08:34:57.456Z,73.62
2023-01-13T08:37:59.364Z,74.08
2023-01-13T08:41:12.463Z,73.28
2023-01-13T08:44:15.356Z,73.34
2023-01-13T08:47:18.766Z,73.14
2023-01-13T08:50:20.625Z,73.55
2023-01-13T08:53:22.481Z,73.77
2023-01-13T08:56:25.536Z,74.38
2023-01-13T08:59:27.086Z,74.06
2023-01-13T09:02:31.528Z,74.41
2023-01-13T09:05:35.225Z,72.54
2023-01-13T09:08:38.109Z,72.26
2023-01-13T09:12:00.872Z,72.50
2023-01-13T09:15:12.618Z,73.08
2023-01-13T09:18:15.049Z,74.20
2023-01-13T09:21:24.488Z,73.55
2023-01-13T09:24:26.719Z,73.06
2023-01-13T09:27:30.129Z,73.28
2023-01-13T09:30:33.269Z,73.25
2023-01-13T09:33:56.061Z,72.21
2023-01-13T09:36:57.587Z,72.96
2023-01-13T09:40:00.476Z,70.65
2023-01-13T09:43:30.827Z,70.91
2023-01-13T09:46:47.674Z,70.95
2023-01-13T09:49:50.410Z,70.02
2023-01-13T09:52:54.640Z,69.17
2023-01-13T09:55:56.211Z,67.63
2023-01-13T09:58:59.167Z,65.36
2023-01-13T10:02:14.222Z,65.40
2023-01-13T10:05:27.886Z,65.88
2023-01-13T10:08:33.657Z,65.98
2023-01-13T10:12:00.361Z,64.83
2023-01-13T10:15:03.094Z,65.77
2023-01-13T10:18:16.852Z,63.51
2023-01-13T10:21:33.205Z,63.47
2023-01-13T10:24:53.297Z,65.04
2023-01-13T10:27:56.363Z,64.24
2023-01-13T10:30:59.572Z,63.71
2023-01-13T10:34:03.528Z,64.80
2023-01-13T10:37:07.203Z,65.25
2023-01-13T10:40:19.336Z,65.40
2023-01-13T10:43:21.297Z,65.69
2023-01-13T10:46:23.074Z,64.66
2023-01-13T10:49:28.896Z,65.36
2023-01-13T10:52:34.352Z,64.55
2023-01-13T10:55:38.592Z,64.76
2023-01-13T10:58:40.388Z,63.76
2023-01-13T11:01:55.287Z,62.12
2023-01-13T11:05:03.309Z,62.67
2023-01-13T11:08:17.845Z,61.98
2023-01-13T11:11:36.571Z,61.51
2023-01-13T11:14:42.644Z,59.28
2023-01-13T11:17:50.567Z,58.20
2023-01-13T11:20:56.121Z,55.70
2023-01-13T11:24:07.256Z,55.82
2023-01-13T11:27:18.521Z,54.69
2023-01-13T11:30:34.405Z,54.55
2023-01-13T11:37:10.992Z,54.51
2023-01-13T11:40:18.503Z,53.46
2023-01-13T11:43:29.023Z,53.20
2023-01-13T11:46:31.925Z,54.40
2023-01-13T11:49:33.814Z,52.52
2023-01-13T11:53:00.853Z,52.59
2023-01-13T11:56:19.320Z,52.66
2023-01-13T11:59:45.088Z,55.24
2023-01-13T12:03:05.652Z,53.51
2023-01-13T12:06:25.340Z,53.79
2023-01-13T12:09:43.812Z,52.37
2023-01-13T12:13:01.341Z,53.25
2023-01-13T12:16:25.036Z,52.85
2023-01-13T12:19:29.454Z,52.76
2023-01-13T12:22:36.845Z,52.09
2023-01-13T12:25:53.999Z,52.16
2023-01-13T12:29:01.941Z,52.51
2023-01-13T12:32:07.541Z,52.04
2023-01-13T12:35:31.491Z,52.48
2023-01-13T12:38:37.960Z,49.83
2023-01-13T12:42:05.013Z,50.83
2023-01-13T12:45:22.674Z,50.54
2023-01-13T12:48:49.564Z,51.30
2023-01-13T12:52:28.233Z,50.33
2023-01-13T12:55:33.001Z,51.54
2023-01-13T13:02:32.476Z,51.13
2023-01-13T13:05:48.145Z,51.40
2023-01-13T13:09:03.941Z,53.24
2023-01-13T13:13:09.361Z,52.45
2023-01-13T13:16:52.349Z,52.40
2023-01-13T13:20:34.361Z,53.44
2023-01-13T13:23:55.376Z,52.48
2023-01-13T13:26:57.050Z,53.42
2023-01-13T13:30:01.335Z,53.76
2023-01-13T13:33:16.378Z,52.84
2023-01-13T13:36:44.929Z,53.01
2023-01-13T13:40:04.651Z,53.04
2023-01-13T13:43:30.679Z,54.02
2023-01-13T13:46:50.545Z,54.06
2023-01-13T13:49:54.958Z,53.54
2023-01-13T13:53:04.562Z,53.47
2023-01-13T13:56:20.219Z,53.76
2023-01-13T13:59:25.028Z,53.49
2023-01-13T14:02:33.719Z,52.64
2023-01-13T14:05:38.774Z,53.50
2023-01-13T14:08:49.678Z,53.77
2023-01-13T14:12:00.324Z,53.62
2023-01-13T14:15:03.605Z,53.73
2023-01-13T14:18:12.026Z,54.51
2023-01-13T14:21:21.372Z,53.21
2023-01-13T14:24:24.322Z,53.32
2023-01-13T14:27:28.054Z,52.91
2023-01-13T14:30:29.523Z,52.05
2023-01-13T14:36:59.222Z,51.74
2023-01-13T14:40:03.180Z,52.42
2023-01-13T14:43:12.694Z,51.84
2023-01-13T14:46:16.828Z,51.62
2023-01-13T14:49:25.242Z,52.09
2023-01-13T14:52:29.453Z,52.18
2023-01-13T14:55:33.173Z,51.09
2023-01-13T14:58:34.715Z,51.83
2023-01-13T15:01:38.628Z,51.20
2023-01-13T15:04:40.950Z,51.39
2023-01-13T15:07:50.059Z,51.40
2023-01-13T15:10:54.897Z,50.65
2023-01-13T15:14:01.726Z,51.28
2023-01-13T15:17:17.765Z,50.99
2023-01-13T15:20:21.327Z,51.23
2023-01-13T15:23:23.020Z,51.53
2023-01-13T15:26:27.300Z,51.12
2023-01-13T15:29:29.162Z,50.58
2023-01-13T15:32:30.477Z,50.99
2023-01-13T15:35:42.400Z,51.45
2023-01-13T15:38:43.734Z,51.20
2023-01-13T15:42:03.898Z,50.58
2023-01-13T15:45:24.336Z,51.23
2023-01-13T15:48:28.445Z,51.29
2023-01-13T15:51:30.995Z,51.62
2023-01-13T15:54:32.802Z,51.51
2023-01-13T15:57:38.876Z,50.42
2023-01-13T16:00:41.010Z,50.78
2023-01-13T16:03:43.744Z,51.33
2023-01-13T16:06:47.889Z,51.40
2023-01-13T16:09:49.377Z,51.81
2023-01-13T16:12:53.239Z,51.72
2023-01-13T16:15:56.670Z,51.17
2023-01-13T16:18:59.586Z,51.71
2023-01-13T16:22:00.904Z,52.61
2023-01-13T16:25:03.570Z,52.99
2023-01-13T16:28:07.499Z,52.35
2023-01-13T16:31:18.086Z,53.26
2023-01-13T16:37:40.504Z,54.08
2023-01-13T16:40:43.699Z,53.58
2023-01-13T16:43:46.267Z,53.57
2023-01-13T16:46:47.970Z,52.99
2023-01-13T16:49:49.645Z,53.55
2023-01-13T16:52:50.912Z,54.10
2023-01-13T16:55:52.371Z,53.18
2023-01-13T16:58:57.210Z,54.10
2023-01-13T17:01:58.689Z,54.22
2023-01-13T17:05:01.267Z,54.07
2023-01-13T17:08:02.685Z,54.82
2023-01-13T17:11:05.576Z,55.56
2023-01-13T17:14:19.199Z,54.83
2023-01-13T17:17:24.988Z,55.34
2023-01-13T17:20:27.772Z,56.02
2023-01-13T17:23:30.694Z,55.88
2023-01-13T17:26:37.609Z,57.13
2023-01-13T17:29:40.981Z,57.85
2023-01-13T17:32:42.289Z,57.49
2023-01-13T17:35:46.492Z,58.31
2023-01-13T17:38:48.095Z,58.13
2023-01-13T17:41:51.585Z,58.44
2023-01-13T17:44:53.694Z,58.82
2023-01-13T17:47:58.428Z,59.15
2023-01-13T17:51:01.150Z,58.56
2023-01-13T17:54:02.471Z,58.04
2023-01-13T17:57:05.104Z,57.65
2023-01-13T18:00:08.674Z,58.97
2023-01-13T18:03:11.792Z,59.40
2023-01-13T18:06:15.963Z,59.21
2023-01-13T18:09:18.766Z,58.55
2023-01-13T18:12:21.356Z,58.83
2023-01-13T18:15:23.290Z,58.25
2023-01-13T18:18:24.634Z,59.02
2023-01-13T18:21:44.756Z,59.29
2023-01-13T18:25:05.469Z,58.68
2023-01-13T18:28:08.038Z,58.42
2023-01-13T18:31:10.127Z,58.94
2023-01-13T18:34:13.192Z,58.78
2023-01-13T18:37:16.209Z,59.05
2023-01-13T18:40:19.000Z,59.76
2023-01-13T18:43:21.642Z,59.05
2023-01-13T18:46:23.811Z,59.32
2023-01-13T18:49:26.552Z,58.61
2023-01-13T18:52:28.491Z,58.69
2023-01-13T18:55:31.094Z,59.04
2023-01-13T18:58:32.664Z,58.89
2023-01-13T19:01:38.339Z,58.76
2023-01-13T19:04:41.353Z,58.79
2023-01-13T19:07:51.021Z,58.47
2023-01-13T19:10:52.383Z,59.37
2023-01-13T19:13:55.259Z,59.29
2023-01-13T19:16:58.553Z,59.22
2023-01-13T19:20:01.255Z,59.16
2023-01-13T19:23:02.842Z,59.37
2023-01-13T19:26:07.353Z,59.46
2023-01-13T19:29:08.803Z,58.70
2023-01-13T19:32:12.911Z,58.84
2023-01-13T19:35:18.258Z,58.69
2023-01-13T19:38:19.892Z,58.91
2023-01-13T19:41:40.744Z,58.80
2023-01-13T19:45:00.112Z,58.36
2023-01-13T19:48:05.738Z,58.44
2023-01-13T19:51:07.373Z,58.34
2023-01-13T19:54:09.947Z,59.47
2023-01-13T19:57:11.816Z,59.26
2023-01-13T20:00:21.029Z,59.00
2023-01-13T20:03:26.703Z,59.47
2023-01-13T20:06:29.410Z,59.58
2023-01-13T20:09:31.907Z,59.18
2023-01-13T20:12:34.452Z,59.27
2023-01-13T20:15:37.346Z,59.99
2023-01-13T20:18:41.614Z,59.63
2023-01-13T20:21:43.464Z,59.72
2023-01-13T20:24:46.447Z,59.73
2023-01-13T20:27:48.159Z,59.85
2023-01-13T20:30:51.001Z,59.62
2023-01-13T20:33:53.282Z,59.69
2023-01-13T20:36:55.873Z,59.67
2023-01-13T20:40:01.876Z,60.15
2023-01-13T20:43:04.546Z,60.17
2023-01-13T20:46:07.361Z,60.65
2023-01-13T20:49:12.632Z,59.46
2023-01-13T20:52:14.000Z,60.75
2023-01-13T20:55:16.572Z,60.25
2023-01-13T20:58:17.895Z,59.61
2023-01-13T21:01:23.392Z,59.72
2023-01-13T21:04:27.002Z,60.27
2023-01-13T21:07:28.306Z,59.44
2023-01-13T21:10:29.900Z,59.50
2023-01-13T21:13:50.809Z,59.26
2023-01-13T21:16:52.117Z,59.98
2023-01-13T21:19:55.087Z,59.79
2023-01-13T21:22:56.729Z,59.07
2023-01-13T21:26:01.418Z,59.07
2023-01-13T21:29:03.497Z,59.69
2023-01-13T21:32:06.896Z,60.22
2023-01-13T21:35:10.988Z,59.77
2023-01-13T21:38:14.294Z,59.71
2023-01-13T21:41:36.849Z,59.15
2023-01-13T21:44:56.457Z,60.08
2023-01-13T21:47:59.063Z,60.23
2023-01-13T21:51:01.031Z,60.69
2023-01-13T21:54:03.843Z,60.38
2023-01-13T21:57:05.105Z,59.55
2023-01-13T22:00:09.463Z,59.54
2023-01-13T22:03:14.465Z,60.95
2023-01-13T22:06:16.763Z,61.32
2023-01-13T22:09:19.372Z,61.26
2023-01-13T22:12:23.322Z,60.74
2023-01-13T22:15:27.536Z,60.90
2023-01-13T22:18:28.846Z,60.28
2023-01-13T22:21:32.365Z,59.77
2023-01-13T22:24:35.256Z,60.99
2023-01-13T22:27:41.244Z,60.74
2023-01-13T22:30:42.525Z,60.08
2023-01-13T22:33:47.502Z,60.36
2023-01-13T22:36:49.554Z,60.48
2023-01-13T22:39:52.206Z,60.41
2023-01-13T22:42:53.486Z,61.29
2023-01-13T22:45:59.817Z,60.63
2023-01-13T22:49:01.478Z,60.13
2023-01-13T22:52:06.368Z,61.05
2023-01-13T22:55:09.492Z,60.88
2023-01-13T22:58:10.839Z,60.94
2023-01-13T23:01:17.685Z,60.61
2023-01-13T23:04:19.452Z,60.66
2023-01-13T23:07:22.896Z,61.65
2023-01-13T23:10:24.219Z,60.77
2023-01-13T23:13:26.813Z,61.31
2023-01-13T23:16:29.676Z,61.13
2023-01-13T23:19:32.909Z,61.66
2023-01-13T23:22:37.811Z,61.99
2023-01-13T23:25:41.127Z,62.14
2023-01-13T23:28:43.697Z,62.12
2023-01-13T23:31:46.239Z,62.21
2023-01-13T23:34:48.828Z,63.32
2023-01-13T23:37:52.043Z,62.16
2023-01-13T23:40:54.882Z,62.86
2023-01-13T23:43:59.372Z,63.72
2023-01-13T23:47:00.855Z,63.39
2023-01-13T23:50:03.445Z,63.29
2023-01-13T23:56:29.521Z,63.03
2023-01-13T23:59:32.052Z,63.86
